Time;durP1;ratioP1;P1;durP2;ratioP2;P2;SDS_P1;SDS_P2;PMS_P1;PMS_P2;Temp;Humidity;BMP_temperature;BMP_pressure;BME280_temperature;BME280_humidity;BME280_pressure;Samples;Min_cycle;Max_cycle;Signal;HPM_P1;HPM_P2
2023/03/07 00:01:07;;;;;;;10.20;1.30;;;23.10;41.90;;;;;;5054322;28;20077;-66
2023/03/07 00:03:35;;;;;;;7.35;1.55;;;23.00;41.60;;;;;;5070020;28;20107;-65
2023/03/07 00:06:09;;;;;;;4.03;1.23;;;23.20;41.20;;;;;;5072586;28;20060;-66
2023/03/07 00:08:36;;;;;;;26.38;1.58;;;23.10;41.70;;;;;;5071439;28;20080;-67
2023/03/07 00:11:05;;;;;;;15.10;2.30;;;23.10;41.90;;;;;;5071627;28;20151;-65
2023/03/07 00:13:32;;;;;;;6.70;1.35;;;23.10;41.40;;;;;;5072015;28;20095;-65
2023/03/07 00:16:08;;;;;;;47.72;3.25;;;23.10;41.90;;;;;;5072292;28;20072;-67
2023/03/07 00:18:34;;;;;;;10.13;1.70;;;23.00;41.40;;;;;;5070449;28;20146;-64
2023/03/07 00:21:06;;;;;;;5.15;1.70;;;23.20;42.00;;;;;;5071103;28;20106;-65
2023/03/07 00:23:37;;;;;;;6.07;1.60;;;22.80;42.10;;;;;;5069847;28;20428;-66
2023/03/07 00:26:05;;;;;;;4.93;1.50;;;22.70;43.00;;;;;;5070464;28;20106;-66
2023/03/07 00:28:31;;;;;;;4.57;1.63;;;22.50;42.80;;;;;;5072991;28;20088;-66
2023/03/07 00:31:03;;;;;;;5.25;1.40;;;22.40;43.20;;;;;;5070427;28;20072;-67
2023/03/07 00:33:30;;;;;;;7.70;1.70;;;22.40;43.50;;;;;;5071746;28;20179;-67
2023/03/07 00:36:03;;;;;;;5.40;1.05;;;22.20;43.50;;;;;;5070421;28;20076;-67
2023/03/07 00:38:31;;;;;;;12.05;1.70;;;22.10;43.80;;;;;;5071831;28;20064;-67
2023/03/07 00:41:07;;;;;;;5.30;1.42;;;21.90;44.00;;;;;;5073544;28;20074;-66
2023/03/07 00:43:35;;;;;;;8.90;1.63;;;21.80;44.50;;;;;;5070349;28;20086;-66
2023/03/07 00:46:02;;;;;;;5.88;1.55;;;21.80;44.40;;;;;;5071535;28;20064;-67
2023/03/07 00:48:37;;;;;;;9.75;1.67;;;21.80;44.80;;;;;;5072573;28;20155;-65
2023/03/07 00:51:06;;;;;;;12.20;1.50;;;21.80;44.60;;;;;;5071014;28;20071;-66
2023/03/07 00:53:33;;;;;;;8.13;1.60;;;21.80;44.90;;;;;;5070954;28;20745;-68
2023/03/07 00:56:01;;;;;;;4.68;1.20;;;21.80;44.70;;;;;;5070107;28;20091;-66
2023/03/07 00:58:29;;;;;;;8.98;1.52;;;21.70;44.70;;;;;;5068688;28;20078;-64
2023/03/07 01:00:57;;;;;;;6.32;1.13;;;21.70;44.70;;;;;;5072767;28;20528;-66
2023/03/07 01:03:24;;;;;;;7.55;1.30;;;21.60;44.90;;;;;;5071859;28;20072;-64
2023/03/07 01:05:51;;;;;;;5.88;1.50;;;21.60;45.10;;;;;;5071254;28;20079;-67
2023/03/07 01:08:18;;;;;;;18.80;6.50;;;21.50;45.00;;;;;;5068416;28;20549;-68
2023/03/07 01:10:47;;;;;;;38.65;28.70;;;21.50;45.40;;;;;;5068873;28;20079;-69
2023/03/07 01:13:14;;;;;;;6.82;1.70;;;21.30;45.40;;;;;;5069523;28;20057;-67
2023/03/07 01:15:40;;;;;;;7.70;1.40;;;21.30;45.50;;;;;;5073192;28;20072;-67
2023/03/07 01:18:08;;;;;;;5.63;1.20;;;21.20;46.00;;;;;;5072930;28;20072;-67
2023/03/07 01:20:37;;;;;;;8.00;1.38;;;21.10;47.90;;;;;;5072311;28;20154;-67
2023/03/07 01:23:04;;;;;;;9.05;1.98;;;20.90;49.40;;;;;;5072320;28;20072;-67
2023/03/07 01:25:31;;;;;;;10.63;1.73;;;20.70;50.30;;;;;;5076602;28;20103;-70
2023/03/07 01:27:57;;;;;;;3.50;1.17;;;20.60;50.70;;;;;;5076889;28;20569;-65
2023/03/07 01:30:24;;;;;;;2.55;0.95;;;20.50;50.60;;;;;;5073626;28;20618;-66
2023/03/07 01:32:58;;;;;;;4.18;0.82;;;20.30;50.60;;;;;;5076332;28;20068;-67
2023/03/07 01:35:25;;;;;;;6.95;1.30;;;20.10;50.30;;;;;;5075063;28;20129;-70
2023/03/07 01:37:53;;;;;;;3.20;1.27;;;20.00;50.70;;;;;;5075638;28;20154;-68
2023/03/07 01:40:22;;;;;;;4.45;1.00;;;20.00;50.90;;;;;;5076783;28;20072;-66
2023/03/07 01:42:48;;;;;;;9.60;1.50;;;19.90;50.90;;;;;;5074044;28;20159;-65
2023/03/07 01:45:15;;;;;;;8.05;1.17;;;19.80;51.40;;;;;;5074936;28;20075;-67
2023/03/07 01:47:44;;;;;;;5.03;1.10;;;19.70;51.70;;;;;;5075100;28;20088;-65
2023/03/07 01:50:15;;;;;;;6.30;1.52;;;19.60;52.40;;;;;;5073914;28;20075;-66
2023/03/07 01:52:59;;;;;;;5.63;1.60;;;19.70;52.70;;;;;;5074136;28;20101;-65
2023/03/07 01:55:33;;;;;;;7.35;1.40;;;19.60;53.00;;;;;;5074038;28;20102;-67
2023/03/07 01:58:04;;;;;;;4.97;1.10;;;19.40;52.00;;;;;;5075012;28;20551;-67
2023/03/07 02:00:35;;;;;;;6.72;1.40;;;19.40;51.90;;;;;;5073124;28;20083;-67
2023/03/07 02:03:07;;;;;;;10.38;1.30;;;19.30;52.10;;;;;;5075826;28;20064;-66
2023/03/07 02:05:46;;;;;;;10.00;1.92;;;19.30;52.00;;;;;;5072980;28;20548;-66
2023/03/07 02:08:15;;;;;;;7.20;1.52;;;19.30;51.70;;;;;;5076189;28;20091;-66
2023/03/07 02:10:42;;;;;;;6.97;1.00;;;19.20;51.70;;;;;;5073786;28;20100;-65
2023/03/07 02:13:09;;;;;;;5.03;0.95;;;19.10;51.80;;;;;;5075632;28;20422;-65
2023/03/07 02:15:36;;;;;;;6.18;1.20;;;19.10;51.70;;;;;;5077385;28;20163;-65
2023/03/07 02:18:04;;;;;;;4.68;1.33;;;19.10;51.70;;;;;;5077381;28;20087;-67
2023/03/07 02:20:52;;;;;;;7.30;1.45;;;19.10;51.70;;;;;;5074316;28;20077;-65
2023/03/07 02:23:48;;;;;;;9.02;2.20;;;19.00;51.70;;;;;;5073455;28;20073;-66
2023/03/07 02:26:48;;;;;;;6.65;1.60;;;19.00;51.70;;;;;;5072048;28;20126;-67
2023/03/07 02:29:15;;;;;;;14.13;2.05;;;19.00;51.80;;;;;;5070106;28;20559;-67
2023/03/07 02:31:41;;;;;;;5.22;1.20;;;19.00;52.50;;;;;;5074186;28;20064;-65
2023/03/07 02:34:20;;;;;;;11.35;1.63;;;18.90;52.10;;;;;;5070336;28;20075;-67
2023/03/07 02:36:50;;;;;;;16.17;1.67;;;18.90;51.80;;;;;;5073776;28;20493;-68
2023/03/07 02:39:18;;;;;;;14.95;1.95;;;18.80;52.20;;;;;;5075700;28;20162;-68
2023/03/07 02:41:44;;;;;;;12.93;2.60;;;18.80;52.20;;;;;;5075411;28;20076;-68
2023/03/07 02:44:11;;;;;;;10.60;2.70;;;18.80;52.50;;;;;;5074553;28;20109;-68
2023/03/07 02:46:37;;;;;;;13.43;2.40;;;18.80;52.40;;;;;;5073090;28;20083;-65
2023/03/07 02:49:04;;;;;;;15.40;2.75;;;18.80;52.70;;;;;;5072834;28;20151;-66
2023/03/07 02:51:31;;;;;;;8.25;2.28;;;18.70;52.80;;;;;;5072935;28;20065;-65
2023/03/07 02:53:57;;;;;;;7.50;2.13;;;18.70;52.90;;;;;;5073067;28;20075;-67
2023/03/07 02:56:23;;;;;;;11.75;2.40;;;18.70;53.00;;;;;;5071737;28;20534;-65
2023/03/07 02:58:50;;;;;;;12.18;3.42;;;18.60;52.70;;;;;;5072312;28;20083;-68
2023/03/07 03:01:16;;;;;;;14.57;4.18;;;18.50;52.90;;;;;;5071716;28;20100;-64
2023/03/07 03:03:43;;;;;;;10.07;3.50;;;18.50;53.20;;;;;;5073426;28;20100;-67
2023/03/07 03:06:10;;;;;;;16.33;3.65;;;18.50;53.10;;;;;;5073938;28;20107;-67
2023/03/07 03:08:36;;;;;;;10.27;3.20;;;18.50;53.00;;;;;;5072430;28;20118;-67
2023/03/07 03:11:02;;;;;;;9.50;3.28;;;18.40;52.80;;;;;;5073071;28;20073;-68
2023/03/07 03:13:29;;;;;;;17.75;3.70;;;18.40;52.80;;;;;;5072941;28;20158;-66
2023/03/07 03:15:56;;;;;;;19.45;4.20;;;18.40;53.40;;;;;;5073862;28;20066;-67
2023/03/07 03:18:26;;;;;;;19.10;3.60;;;18.30;53.00;;;;;;5076066;28;20064;-66
2023/03/07 03:20:53;;;;;;;18.85;2.95;;;18.30;53.30;;;;;;5073051;28;20088;-66
2023/03/07 03:23:19;;;;;;;16.30;3.90;;;18.20;53.30;;;;;;5073585;28;20065;-67
2023/03/07 03:25:55;;;;;;;17.13;4.10;;;18.20;53.80;;;;;;5074838;28;20144;-67
2023/03/07 03:28:22;;;;;;;20.40;3.93;;;18.20;53.60;;;;;;5072282;28;20087;-68
2023/03/07 03:30:56;;;;;;;;;;;18.00;53.80;;;;;;5072760;28;20553;-67
2023/03/07 03:33:22;;;;;;;18.42;3.47;;;18.00;53.90;;;;;;5073072;28;19956;-66
2023/03/07 03:35:49;;;;;;;14.65;3.72;;;17.90;54.20;;;;;;5071765;28;20150;-67
2023/03/07 03:38:15;;;;;;;9.98;3.63;;;17.90;54.40;;;;;;5073468;28;20086;-67
2023/03/07 03:40:42;;;;;;;14.90;3.47;;;17.90;54.60;;;;;;5074232;28;20165;-65
2023/03/07 03:43:08;;;;;;;19.23;3.55;;;17.90;54.90;;;;;;5073915;28;20083;-67
2023/03/07 03:45:35;;;;;;;26.58;3.78;;;17.80;54.60;;;;;;5072349;28;20088;-65
2023/03/07 03:48:01;;;;;;;15.63;3.47;;;17.80;55.00;;;;;;5073555;28;20442;-66
2023/03/07 03:50:27;;;;;;;25.23;3.58;;;17.70;55.00;;;;;;5070343;28;20203;-65
2023/03/07 03:52:54;;;;;;;10.23;3.05;;;17.70;54.80;;;;;;5071602;28;20069;-66
2023/03/07 03:55:20;;;;;;;19.20;3.67;;;17.60;54.80;;;;;;5071938;28;20155;-66
2023/03/07 03:57:46;;;;;;;13.20;3.55;;;17.70;55.20;;;;;;5073562;28;20424;-66
2023/03/07 04:00:15;;;;;;;21.38;3.42;;;17.70;55.00;;;;;;5071983;28;20171;-68
2023/03/07 04:02:46;;;;;;;14.75;2.92;;;17.70;55.10;;;;;;5071327;28;20154;-65
2023/03/07 04:05:15;;;;;;;16.73;3.10;;;17.70;55.00;;;;;;5072666;28;20583;-68
2023/03/07 04:07:42;;;;;;;29.05;4.63;;;17.60;54.90;;;;;;5072130;28;20505;-65
2023/03/07 04:10:09;;;;;;;17.88;3.22;;;17.60;55.20;;;;;;5072958;28;20484;-66
2023/03/07 04:12:35;;;;;;;10.50;2.65;;;17.60;55.20;;;;;;5073353;28;20068;-66
2023/03/07 04:15:02;;;;;;;12.45;2.40;;;17.60;55.00;;;;;;5054600;28;20089;-66
2023/03/07 04:17:28;;;;;;;22.77;2.97;;;17.60;54.80;;;;;;5072163;28;20125;-67
2023/03/07 04:19:55;;;;;;;9.27;2.30;;;17.60;54.80;;;;;;5074000;28;20228;-65
2023/03/07 04:22:21;;;;;;;12.80;2.33;;;17.50;54.70;;;;;;5069561;28;20075;-65
2023/03/07 04:24:47;;;;;;;20.25;2.40;;;17.60;55.30;;;;;;5073056;28;20091;-65
2023/03/07 04:27:14;;;;;;;5.20;1.92;;;17.60;55.50;;;;;;5073042;28;20085;-65
2023/03/07 04:29:40;;;;;;;7.45;2.13;;;17.50;56.10;;;;;;5072795;28;20073;-64
2023/03/07 04:32:07;;;;;;;8.98;2.22;;;17.50;56.20;;;;;;5070303;28;20206;-65
2023/03/07 04:34:33;;;;;;;13.38;2.45;;;17.50;56.40;;;;;;5072262;28;20517;-65
2023/03/07 04:36:59;;;;;;;6.22;1.90;;;17.50;56.10;;;;;;5071567;28;20099;-67
2023/03/07 04:39:26;;;;;;;8.70;1.88;;;17.60;56.20;;;;;;5071044;28;20072;-67
2023/03/07 04:41:52;;;;;;;6.50;1.90;;;17.50;56.20;;;;;;5072092;28;20085;-65
2023/03/07 04:44:19;;;;;;;4.90;1.60;;;17.50;56.30;;;;;;5071316;28;20077;-66
2023/03/07 04:46:46;;;;;;;5.85;1.70;;;17.50;56.50;;;;;;5071337;28;20089;-65
2023/03/07 04:49:12;;;;;;;4.30;1.90;;;17.50;56.60;;;;;;5071724;28;20159;-66
2023/03/07 04:51:39;;;;;;;7.72;1.90;;;17.50;56.70;;;;;;5072418;28;20156;-66
2023/03/07 04:54:05;;;;;;;3.65;1.67;;;17.40;56.90;;;;;;5071430;28;20069;-64
2023/03/07 04:56:32;;;;;;;11.25;2.33;;;17.30;57.10;;;;;;5074202;28;20569;-65
2023/03/07 04:58:58;;;;;;;5.55;1.75;;;17.30;57.60;;;;;;5074212;28;20076;-65
2023/03/07 05:01:24;;;;;;;10.93;2.00;;;17.30;57.50;;;;;;5076566;28;20077;-65
2023/03/07 05:03:51;;;;;;;4.93;1.63;;;17.30;57.50;;;;;;5074155;28;20276;-65
2023/03/07 05:06:17;;;;;;;7.50;2.05;;;17.20;57.60;;;;;;5074196;28;20077;-65
2023/03/07 05:08:44;;;;;;;14.27;4.53;;;17.20;57.50;;;;;;5077093;28;20191;-66
2023/03/07 05:11:10;;;;;;;11.90;3.08;;;17.20;57.40;;;;;;5074972;28;20407;-67
2023/03/07 05:13:36;;;;;;;7.05;2.05;;;17.20;57.60;;;;;;5077998;28;20072;-68
2023/03/07 05:16:03;;;;;;;10.38;2.08;;;17.10;57.50;;;;;;5073748;28;20238;-67
2023/03/07 05:18:29;;;;;;;8.45;2.20;;;17.10;57.70;;;;;;5077406;28;20437;-69
2023/03/07 05:20:56;;;;;;;7.50;1.80;;;17.10;57.60;;;;;;5076646;28;20084;-69
2023/03/07 05:23:22;;;;;;;9.88;2.20;;;17.10;57.90;;;;;;5072923;28;20531;-67
2023/03/07 05:25:49;;;;;;;7.68;1.90;;;17.00;58.00;;;;;;5076338;28;20143;-67
2023/03/07 05:28:16;;;;;;;6.57;1.85;;;16.90;58.20;;;;;;5076384;28;20093;-68
2023/03/07 05:30:46;;;;;;;9.75;4.40;;;16.80;58.60;;;;;;5077847;28;20073;-66
2023/03/07 05:33:14;;;;;;;8.38;1.90;;;16.80;58.50;;;;;;5077614;28;20176;-67
2023/03/07 05:35:40;;;;;;;6.75;1.70;;;16.80;58.70;;;;;;5078832;28;20096;-69
2023/03/07 05:38:07;;;;;;;7.55;1.90;;;16.70;58.80;;;;;;5077026;28;20065;-66
2023/03/07 05:40:34;;;;;;;8.95;1.85;;;16.70;59.10;;;;;;5075422;28;20068;-65
2023/03/07 05:43:00;;;;;;;10.57;1.98;;;16.70;59.60;;;;;;5077711;28;20168;-66
2023/03/07 05:45:27;;;;;;;9.75;2.50;;;16.60;60.10;;;;;;5074477;28;20095;-66
2023/03/07 05:47:53;;;;;;;6.53;2.72;;;16.50;60.70;;;;;;5074561;28;20561;-68
2023/03/07 05:50:20;;;;;;;8.50;2.30;;;16.50;60.90;;;;;;5074962;28;20088;-65
2023/03/07 05:52:46;;;;;;;18.80;2.03;;;16.40;60.90;;;;;;5074815;28;20529;-67
2023/03/07 05:55:12;;;;;;;11.18;1.88;;;16.40;61.10;;;;;;5074394;28;21931;-68
2023/03/07 05:57:39;;;;;;;6.78;1.98;;;16.30;61.20;;;;;;5077354;28;20085;-66
2023/03/07 06:00:07;;;;;;;7.45;2.10;;;16.30;61.80;;;;;;5077932;28;20076;-68
2023/03/07 06:02:33;;;;;;;12.82;2.63;;;16.20;62.00;;;;;;5076038;28;20135;-67
2023/03/07 06:04:59;;;;;;;9.30;2.15;;;16.20;62.50;;;;;;5076487;28;20158;-68
2023/03/07 06:07:26;;;;;;;6.00;1.88;;;16.20;62.90;;;;;;5074778;28;20093;-67
2023/03/07 06:09:52;;;;;;;6.78;2.28;;;16.20;62.80;;;;;;5073752;28;20531;-68
2023/03/07 06:12:19;;;;;;;12.95;2.22;;;16.20;62.80;;;;;;5076052;28;20100;-67
2023/03/07 06:14:45;;;;;;;11.68;2.60;;;16.20;62.80;;;;;;5073821;28;20081;-69
2023/03/07 06:17:11;;;;;;;14.65;3.40;;;16.10;62.50;;;;;;5071979;28;20087;-68
2023/03/07 06:19:38;;;;;;;12.35;2.20;;;16.10;62.70;;;;;;5076163;28;20461;-68
2023/03/07 06:22:04;;;;;;;12.05;3.33;;;16.10;62.20;;;;;;5076649;28;20065;-67
2023/03/07 06:24:31;;;;;;;11.15;2.08;;;16.10;62.30;;;;;;5076651;28;20547;-67
2023/03/07 06:26:58;;;;;;;7.00;1.95;;;16.10;62.20;;;;;;5078116;28;20454;-66
2023/03/07 06:29:24;;;;;;;4.70;1.88;;;16.00;61.70;;;;;;5075105;28;20082;-68
2023/03/07 06:31:51;;;;;;;10.18;2.15;;;16.10;61.70;;;;;;5076874;28;20173;-68
2023/03/07 06:34:18;;;;;;;7.80;2.10;;;16.10;61.60;;;;;;5074600;28;20135;-68
2023/03/07 06:36:44;;;;;;;10.05;2.10;;;16.00;61.70;;;;;;5073977;28;20069;-69
2023/03/07 06:39:11;;;;;;;8.95;1.70;;;16.00;62.00;;;;;;5077490;28;20124;-67
2023/03/07 06:41:37;;;;;;;11.75;1.95;;;15.90;61.20;;;;;;5073226;28;20081;-67
2023/03/07 06:44:04;;;;;;;9.27;2.03;;;15.90;61.60;;;;;;5074017;28;20077;-66
2023/03/07 06:46:30;;;;;;;6.72;1.85;;;15.90;62.00;;;;;;5074007;28;20478;-66
2023/03/07 06:48:56;;;;;;;10.20;1.90;;;15.90;61.90;;;;;;5075658;28;20081;-69
2023/03/07 06:51:23;;;;;;;12.13;3.75;;;15.90;62.00;;;;;;5075194;28;20483;-71
2023/03/07 06:53:49;;;;;;;12.25;2.97;;;15.90;61.40;;;;;;5075760;28;20088;-68
2023/03/07 06:56:15;;;;;;;8.50;1.80;;;15.90;61.60;;;;;;5073772;28;20073;-67
2023/03/07 06:58:42;;;;;;;5.80;1.67;;;15.90;61.10;;;;;;5074366;28;20069;-68
2023/03/07 07:01:14;;;;;;;;;;;15.90;61.20;;;;;;5075753;28;20068;-68
2023/03/07 07:03:40;;;;;;;6.95;3.92;;;15.90;61.30;;;;;;5075067;28;20337;-67
2023/03/07 07:06:07;;;;;;;10.90;2.13;;;15.90;61.60;;;;;;5073100;28;20073;-69
2023/03/07 07:08:33;;;;;;;9.90;1.83;;;15.80;61.60;;;;;;5071076;28;20092;-64
2023/03/07 07:10:59;;;;;;;10.75;4.10;;;15.90;61.60;;;;;;5073057;28;20160;-65
2023/03/07 07:13:26;;;;;;;13.75;2.13;;;15.90;61.10;;;;;;5075692;28;20092;-66
2023/03/07 07:15:53;;;;;;;16.58;3.13;;;15.90;60.50;;;;;;5074231;28;20073;-67
2023/03/07 07:18:19;;;;;;;6.72;1.80;;;15.90;60.70;;;;;;5072688;28;20084;-66
2023/03/07 07:20:51;;;;;;;3.90;1.73;;;15.90;60.60;;;;;;5072604;28;20076;-68
2023/03/07 07:23:19;;;;;;;6.68;1.50;;;15.90;60.40;;;;;;5050964;28;20080;-68
2023/03/07 07:25:45;;;;;;;9.65;1.70;;;15.90;60.60;;;;;;5073056;28;20069;-68
2023/03/07 07:28:12;;;;;;;7.43;1.67;;;15.80;61.20;;;;;;5073889;28;20122;-66
2023/03/07 07:30:38;;;;;;;10.93;1.83;;;15.80;61.40;;;;;;5073620;28;20072;-67
2023/03/07 07:33:05;;;;;;;4.63;1.70;;;15.70;61.90;;;;;;5074129;28;20069;-66
2023/03/07 07:35:31;;;;;;;6.50;1.40;;;15.70;62.00;;;;;;5072711;28;20092;-67
2023/03/07 07:37:57;;;;;;;7.28;1.85;;;15.70;61.40;;;;;;5074603;28;20088;-69
2023/03/07 07:40:24;;;;;;;6.43;1.77;;;15.70;61.40;;;;;;5072812;28;20534;-66
2023/03/07 07:42:53;;;;;;;6.65;1.33;;;15.60;60.70;;;;;;5071287;28;20558;-68
2023/03/07 07:45:22;;;;;;;3.63;1.13;;;15.60;60.70;;;;;;5073839;28;20111;-68
2023/03/07 07:47:50;;;;;;;4.85;2.00;;;15.70;60.80;;;;;;5074305;28;20081;-65
2023/03/07 07:50:18;;;;;;;5.97;1.42;;;15.70;60.90;;;;;;5074080;28;20144;-66
2023/03/07 07:52:45;;;;;;;4.70;1.48;;;15.60;61.30;;;;;;5073415;28;20130;-67
2023/03/07 07:55:13;;;;;;;4.68;1.40;;;15.60;61.10;;;;;;5072766;28;20522;-65
2023/03/07 07:57:40;;;;;;;5.20;1.63;;;15.60;60.90;;;;;;5074318;28;20073;-68
2023/03/07 08:00:08;;;;;;;9.27;1.55;;;15.60;60.90;;;;;;5073491;28;20132;-66
2023/03/07 08:02:37;;;;;;;3.70;1.30;;;15.60;61.10;;;;;;5071758;28;20119;-65
2023/03/07 08:05:06;;;;;;;3.22;1.40;;;15.60;60.90;;;;;;5073395;28;20105;-67
2023/03/07 08:07:33;;;;;;;4.20;1.30;;;15.60;59.80;;;;;;5071612;28;20095;-67
2023/03/07 08:09:59;;;;;;;8.18;1.75;;;15.50;60.20;;;;;;5073563;28;20095;-66
2023/03/07 08:12:25;;;;;;;4.75;1.50;;;15.50;60.80;;;;;;5073693;28;20515;-66
2023/03/07 08:14:52;;;;;;;5.25;1.00;;;15.50;60.50;;;;;;5073508;28;20069;-67
2023/03/07 08:17:18;;;;;;;5.10;1.42;;;15.50;60.50;;;;;;5073770;28;20077;-67
2023/03/07 08:19:45;;;;;;;4.38;1.30;;;15.50;59.90;;;;;;5073382;28;20508;-66
2023/03/07 08:22:11;;;;;;;3.70;1.20;;;15.40;59.70;;;;;;5072315;28;20077;-66
2023/03/07 08:24:38;;;;;;;2.85;0.80;;;15.40;59.60;;;;;;5074020;28;20102;-65
2023/03/07 08:27:04;;;;;;;5.30;1.55;;;15.50;59.70;;;;;;5072515;28;20085;-65
2023/03/07 08:29:32;;;;;;;4.05;1.50;;;15.50;59.50;;;;;;5073606;28;20076;-66
2023/03/07 08:31:58;;;;;;;4.53;1.00;;;15.40;59.70;;;;;;5072254;28;20061;-66
2023/03/07 08:34:24;;;;;;;3.60;1.10;;;15.40;59.70;;;;;;5073675;28;20442;-68
2023/03/07 08:36:51;;;;;;;;;;;15.40;59.70;;;;;;5074188;28;20097;-67
2023/03/07 08:39:18;;;;;;;5.32;1.70;;;15.40;60.20;;;;;;5071252;28;19985;-67
2023/03/07 08:41:44;;;;;;;5.95;1.40;;;15.30;60.00;;;;;;5070560;28;20068;-66
2023/03/07 08:44:10;;;;;;;;;;;15.10;60.40;;;;;;5071599;28;20087;-67
2023/03/07 08:46:37;;;;;;;6.35;1.50;;;15.00;59.80;;;;;;5071601;28;19977;-67
2023/03/07 08:49:03;;;;;;;7.90;1.35;;;15.00;59.90;;;;;;5051745;28;20165;-66
2023/03/07 08:51:29;;;;;;;;;;;15.10;59.80;;;;;;5073550;28;20081;-66
2023/03/07 08:53:58;;;;;;;4.90;1.27;;;15.00;59.70;;;;;;5071064;28;19979;-67
2023/03/07 08:56:24;;;;;;;3.45;1.27;;;15.10;59.40;;;;;;5073038;28;20069;-65
2023/03/07 08:58:54;;;;;;;3.45;1.30;;;15.00;59.30;;;;;;5072504;28;20073;-65
2023/03/07 09:01:20;;;;;;;6.05;1.00;;;14.90;59.20;;;;;;5071429;28;20077;-67
2023/03/07 09:03:47;;;;;;;6.13;1.20;;;14.90;59.10;;;;;;5071002;28;20154;-67
2023/03/07 09:06:17;;;;;;;;;;;14.80;59.30;;;;;;5072949;28;20512;-66
2023/03/07 09:08:44;;;;;;;8.10;1.10;;;14.90;59.40;;;;;;5072524;28;20440;-66
2023/03/07 09:11:10;;;;;;;4.70;1.42;;;14.80;59.20;;;;;;5071953;28;20081;-65
2023/03/07 09:13:36;;;;;;;;;;;14.90;58.80;;;;;;5072911;28;20164;-66
2023/03/07 09:16:07;;;;;;;1.83;1.10;;;14.90;58.90;;;;;;5073840;28;20007;-67
2023/03/07 09:18:35;;;;;;;3.30;1.33;;;14.80;58.80;;;;;;5074083;28;20429;-65
2023/03/07 09:21:02;;;;;;;4.75;1.23;;;14.80;58.90;;;;;;5074110;28;20496;-66
2023/03/07 09:23:29;;;;;;;7.03;1.38;;;14.80;58.90;;;;;;5070612;28;20203;-66
2023/03/07 09:25:59;;;;;;;4.20;1.20;;;14.70;59.00;;;;;;5073187;28;20514;-67
2023/03/07 09:28:25;;;;;;;4.35;1.20;;;14.80;59.20;;;;;;5075076;28;20085;-67
2023/03/07 09:30:52;;;;;;;6.80;1.33;;;14.70;59.20;;;;;;5073210;28;20114;-67
2023/03/07 09:33:19;;;;;;;5.47;1.10;;;14.70;59.40;;;;;;5072562;28;20061;-66
2023/03/07 09:35:45;;;;;;;1.60;0.95;;;14.70;59.10;;;;;;5072749;28;20126;-67
2023/03/07 09:38:12;;;;;;;5.80;1.10;;;14.60;59.40;;;;;;5054617;28;20110;-66
2023/03/07 09:40:38;;;;;;;2.10;0.98;;;14.50;59.50;;;;;;5071628;28;20077;-67
2023/03/07 09:43:23;;;;;;;4.00;1.20;;;14.50;59.80;;;;;;5073436;28;20099;-67
2023/03/07 09:46:20;;;;;;;7.57;1.35;;;14.60;59.80;;;;;;5073038;28;20165;-67
2023/03/07 09:49:06;;;;;;;7.47;1.50;;;14.60;59.50;;;;;;5075245;28;20159;-65
2023/03/07 09:51:32;;;;;;;4.90;1.40;;;14.60;59.50;;;;;;5076220;28;20069;-65
2023/03/07 09:54:19;;;;;;;;;;;14.50;59.60;;;;;;5074494;28;20173;-67
2023/03/07 09:57:04;;;;;;;3.88;1.55;;;14.50;59.50;;;;;;5073648;28;19956;-67
2023/03/07 09:59:42;;;;;;;8.18;1.48;;;14.40;59.70;;;;;;5072653;28;20513;-65
2023/03/07 10:02:50;;;;;;;5.97;1.42;;;14.40;59.60;;;;;;5071585;28;20142;-64
2023/03/07 10:05:16;;;;;;;11.25;1.63;;;14.40;59.60;;;;;;4992755;28;20112;-67
2023/03/07 10:07:42;;;;;;;;;;;14.30;60.00;;;;;;5076338;28;20506;-66
2023/03/07 10:10:19;;;;;;;7.35;1.38;;;14.30;60.10;;;;;;5077465;28;20360;-67
2023/03/07 10:13:11;;;;;;;6.85;1.40;;;14.30;60.50;;;;;;5074594;28;20517;-68
2023/03/07 10:15:59;;;;;;;5.80;1.55;;;14.30;60.60;;;;;;5074613;28;20089;-66
2023/03/07 10:18:44;;;;;;;6.13;1.48;;;14.20;60.60;;;;;;5075161;28;20072;-67
2023/03/07 10:21:46;;;;;;;4.70;1.20;;;14.20;60.40;;;;;;5052531;28;20176;-67
2023/03/07 10:24:48;;;;;;;7.35;1.00;;;14.10;60.20;;;;;;5075589;28;20475;-67
2023/03/07 10:27:15;;;;;;;4.78;0.95;;;14.10;60.50;;;;;;5009656;28;20101;-65
2023/03/07 10:29:46;;;;;;;9.80;1.08;;;14.10;60.20;;;;;;5009959;28;20133;-65
2023/03/07 10:32:33;;;;;;;5.32;1.17;;;14.10;60.30;;;;;;5007968;28;20491;-66
2023/03/07 10:35:21;;;;;;;11.82;1.70;;;14.00;60.10;;;;;;5009942;28;20070;-65
2023/03/07 10:37:56;;;;;;;8.10;1.15;;;14.10;60.30;;;;;;5008051;28;20153;-66
2023/03/07 10:40:48;;;;;;;8.10;1.08;;;14.00;60.30;;;;;;5009635;28;20090;-67
2023/03/07 10:43:32;;;;;;;5.32;1.10;;;14.10;60.50;;;;;;5001477;28;20114;-66
2023/03/07 10:46:15;;;;;;;10.95;1.30;;;14.10;60.90;;;;;;5009801;28;20077;-66
2023/03/07 10:49:16;;;;;;;6.85;1.10;;;14.10;60.70;;;;;;5008539;28;20130;-66
2023/03/07 10:52:00;;;;;;;4.70;1.67;;;14.10;60.90;;;;;;5005644;28;20086;-67
2023/03/07 10:54:32;;;;;;;5.95;0.88;;;14.10;61.40;;;;;;5007971;28;20089;-67
2023/03/07 10:57:11;;;;;;;10.90;1.27;;;13.90;62.10;;;;;;5009082;28;20089;-66
2023/03/07 10:59:42;;;;;;;3.92;1.23;;;13.90;62.30;;;;;;5009376;28;20093;-67
2023/03/07 11:02:36;;;;;;;8.48;1.08;;;13.90;62.40;;;;;;5021788;28;20112;-66
2023/03/07 11:05:23;;;;;;;7.50;1.27;;;13.90;62.00;;;;;;5074629;28;20105;-66
2023/03/07 11:07:49;;;;;;;5.15;0.88;;;13.90;62.30;;;;;;5073422;28;20096;-66
2023/03/07 11:10:35;;;;;;;;;;;13.90;62.70;;;;;;5073642;28;20077;-68
2023/03/07 11:13:23;;;;;;;6.88;1.10;;;13.80;62.80;;;;;;5072978;28;19980;-66
2023/03/07 11:15:49;;;;;;;;;;;13.90;62.70;;;;;;5076000;28;20069;-68
2023/03/07 11:18:40;;;;;;;4.70;0.88;;;13.80;63.00;;;;;;5076034;28;19960;-67
2023/03/07 11:21:46;;;;;;;7.90;1.10;;;13.80;63.20;;;;;;5074134;28;20073;-67
2023/03/07 11:24:37;;;;;;;7.38;1.00;;;13.70;63.80;;;;;;5073721;28;20092;-66
2023/03/07 11:27:04;;;;;;;3.17;1.10;;;13.70;64.10;;;;;;5072584;28;20554;-67
2023/03/07 11:29:32;;;;;;;4.03;1.05;;;13.70;64.10;;;;;;5074257;28;20097;-69
2023/03/07 11:32:03;;;;;;;5.22;1.20;;;13.70;64.20;;;;;;5071078;28;20156;-65
2023/03/07 11:34:48;;;;;;;3.08;1.05;;;13.60;64.40;;;;;;5072775;28;20097;-68
2023/03/07 11:37:27;;;;;;;2.65;0.98;;;13.70;64.10;;;;;;5072926;28;20088;-65
2023/03/07 11:40:19;;;;;;;2.28;0.85;;;13.70;64.20;;;;;;5074357;28;20587;-67
2023/03/07 11:43:07;;;;;;;4.20;0.88;;;13.70;64.20;;;;;;5073222;28;20073;-66
2023/03/07 11:45:45;;;;;;;3.10;0.80;;;13.60;63.90;;;;;;5071488;28;20119;-67
2023/03/07 11:48:39;;;;;;;2.97;0.90;;;13.50;64.20;;;;;;5071748;28;20093;-66
2023/03/07 11:51:26;;;;;;;4.78;0.77;;;13.50;64.10;;;;;;5072498;28;20104;-66
2023/03/07 11:54:13;;;;;;;5.80;0.93;;;13.50;64.10;;;;;;5071371;28;20069;-68
2023/03/07 11:56:46;;;;;;;4.07;1.17;;;13.40;64.00;;;;;;5071640;28;20065;-66
2023/03/07 11:59:27;;;;;;;2.35;0.70;;;13.50;63.70;;;;;;5071800;28;20738;-67
2023/03/07 12:01:58;;;;;;;1.52;0.82;;;13.50;63.70;;;;;;5073498;28;20247;-67
2023/03/07 12:05:07;;;;;;;4.63;0.70;;;13.50;62.90;;;;;;5072569;28;20097;-67
2023/03/07 12:08:07;;;;;;;2.60;0.82;;;13.50;63.40;;;;;;5070877;28;20096;-67
2023/03/07 12:10:59;;;;;;;79.50;3.63;;;13.50;63.80;;;;;;5070319;28;20080;-68
2023/03/07 12:13:58;;;;;;;6.25;0.90;;;13.50;64.00;;;;;;5071423;28;20069;-66
2023/03/07 12:16:44;;;;;;;4.20;1.20;;;13.50;64.40;;;;;;5068454;28;20077;-66
2023/03/07 12:19:31;;;;;;;3.67;0.70;;;13.50;64.60;;;;;;5072314;28;20096;-67
2023/03/07 12:22:13;;;;;;;3.92;0.90;;;13.50;64.60;;;;;;5073790;28;20073;-67
2023/03/07 12:24:57;;;;;;;3.05;1.00;;;13.40;64.70;;;;;;5073917;28;20076;-65
2023/03/07 12:28:11;;;;;;;4.32;1.10;;;13.40;64.70;;;;;;5071921;28;20093;-67
2023/03/07 12:30:46;;;;;;;9.32;0.95;;;13.40;64.70;;;;;;5069858;28;20094;-66
2023/03/07 12:33:27;;;;;;;1.08;0.60;;;13.40;64.80;;;;;;5073889;28;20073;-65
2023/03/07 12:36:00;;;;;;;5.55;0.90;;;13.50;64.30;;;;;;5072023;28;20155;-67
2023/03/07 12:38:34;;;;;;;2.67;0.70;;;13.40;64.20;;;;;;5072500;28;20186;-67
2023/03/07 12:41:20;;;;;;;2.75;0.80;;;13.50;64.30;;;;;;5072880;28;20070;-65
2023/03/07 12:43:57;;;;;;;3.85;0.85;;;13.40;64.30;;;;;;5071730;28;20076;-67
2023/03/07 12:46:39;;;;;;;3.83;0.90;;;13.50;63.80;;;;;;5072691;28;20115;-65
2023/03/07 12:49:19;;;;;;;11.07;1.35;;;13.50;63.20;;;;;;5073049;28;20129;-65
2023/03/07 12:51:52;;;;;;;4.70;0.95;;;13.50;62.80;;;;;;5069610;28;20609;-67
2023/03/07 12:54:36;;;;;;;3.78;0.65;;;13.50;62.70;;;;;;5070906;28;20420;-67
2023/03/07 12:57:12;;;;;;;3.05;1.00;;;13.50;62.50;;;;;;5069472;28;20448;-67
2023/03/07 12:59:41;;;;;;;2.78;1.05;;;13.40;62.20;;;;;;5073237;28;20069;-67
2023/03/07 13:02:24;;;;;;;2.50;0.60;;;13.40;62.30;;;;;;5070701;28;20076;-65
2023/03/07 13:04:50;;;;;;;3.70;0.50;;;13.40;61.90;;;;;;5070962;28;20612;-66
2023/03/07 13:07:25;;;;;;;1.70;0.80;;;13.30;61.80;;;;;;5071174;28;20081;-66
2023/03/07 13:09:54;;;;;;;2.83;0.75;;;13.30;61.90;;;;;;5072269;28;20159;-66